createdAt,value
2022-08-24T05:42:16.064Z,20.50
2022-08-24T05:44:44.080Z,20.40
2022-08-24T05:47:12.324Z,20.50
2022-08-24T05:49:41.756Z,20.60
2022-08-24T05:52:10.280Z,20.70
2022-08-24T05:54:38.296Z,20.90
2022-08-24T05:57:06.506Z,21.00
2022-08-24T05:59:35.922Z,21.00
2022-08-24T06:02:04.055Z,21.10
2022-08-24T06:04:32.823Z,21.20
2022-08-24T06:07:00.774Z,21.30
2022-08-24T06:09:28.883Z,21.30
2022-08-24T06:11:56.884Z,21.40
2022-08-24T06:14:27.064Z,21.50
2022-08-24T06:16:56.696Z,21.60
2022-08-24T06:19:27.010Z,21.60
2022-08-24T06:21:55.959Z,21.70
2022-08-24T06:24:45.383Z,21.80
2022-08-24T06:27:21.524Z,21.90
2022-08-24T06:29:50.459Z,22.00
2022-08-24T06:32:20.222Z,22.00
2022-08-24T06:34:48.304Z,22.00
2022-08-24T06:37:16.635Z,22.00
2022-08-24T06:39:44.684Z,22.00
2022-08-24T06:42:12.819Z,22.10
2022-08-24T06:44:40.877Z,22.30
2022-08-24T06:47:09.065Z,22.40
2022-08-24T06:49:39.139Z,22.60
2022-08-24T06:52:07.433Z,22.60
2022-08-24T06:54:35.624Z,22.70
2022-08-24T06:57:03.769Z,22.80
2022-08-24T06:59:33.501Z,22.90
2022-08-24T07:02:01.771Z,22.80
2022-08-24T07:04:30.170Z,22.80
2022-08-24T07:06:59.839Z,22.80
2022-08-24T07:09:27.926Z,22.90
2022-08-24T07:11:56.087Z,23.00
2022-08-24T07:14:24.146Z,23.10
2022-08-24T07:16:52.438Z,23.20
2022-08-24T07:19:20.602Z,23.30
2022-08-24T07:21:48.692Z,23.40
2022-08-24T07:24:18.513Z,23.60
2022-08-24T07:26:46.500Z,23.70
2022-08-24T07:29:45.737Z,23.90
2022-08-24T07:32:04.475Z,24.00
2022-08-24T07:34:32.648Z,24.00
2022-08-24T07:37:01.046Z,24.10
2022-08-24T07:39:31.097Z,24.40
2022-08-24T07:42:12.730Z,24.60
2022-08-24T07:44:42.086Z,24.80
2022-08-24T07:47:36.490Z,25.10
2022-08-24T07:49:58.443Z,25.30
2022-08-24T07:52:26.554Z,25.50
2022-08-24T07:54:56.071Z,25.70
2022-08-24T07:57:24.161Z,25.70
2022-08-24T07:59:52.342Z,25.80
2022-08-24T08:02:23.632Z,25.90
2022-08-24T08:04:56.159Z,26.10
2022-08-24T08:07:24.669Z,26.20
2022-08-24T08:09:53.035Z,26.30
2022-08-24T08:12:22.465Z,26.30
2022-08-24T08:14:50.561Z,26.30
2022-08-24T08:17:18.558Z,26.40
2022-08-24T08:19:47.042Z,26.40
2022-08-24T08:22:32.499Z,26.40
2022-08-24T08:25:00.668Z,26.50
2022-08-24T08:27:30.089Z,26.50
2022-08-24T08:29:58.149Z,26.60
2022-08-24T08:32:26.293Z,26.60
2022-08-24T08:34:55.982Z,26.70
2022-08-24T08:37:26.283Z,26.80
2022-08-24T08:39:54.781Z,27.10
2022-08-24T08:42:40.318Z,27.30
2022-08-24T08:45:18.530Z,27.50
2022-08-24T08:48:14.755Z,27.70
2022-08-24T08:51:03.502Z,28.00
2022-08-24T08:53:57.190Z,28.20
2022-08-24T08:56:35.548Z,28.50
2022-08-24T08:59:16.003Z,28.80
2022-08-24T09:01:50.783Z,28.80
2022-08-24T09:04:55.893Z,29.00
2022-08-24T09:07:40.629Z,29.10
2022-08-24T09:10:27.204Z,29.20
2022-08-24T09:13:11.901Z,29.40
2022-08-24T09:15:58.002Z,29.60
2022-08-24T09:18:36.772Z,29.80
2022-08-24T09:21:26.868Z,29.70
2022-08-24T09:24:08.344Z,29.90
2022-08-24T09:26:48.026Z,30.00
2022-08-24T09:29:19.235Z,30.20
2022-08-24T09:32:04.425Z,30.40
2022-08-24T09:34:40.105Z,30.40
2022-08-24T09:37:33.328Z,30.50
2022-08-24T09:40:10.511Z,30.80
2022-08-24T09:43:05.057Z,31.10
2022-08-24T09:46:06.315Z,31.20
2022-08-24T09:49:09.172Z,31.40
2022-08-24T09:52:22.857Z,31.50
2022-08-24T09:55:33.188Z,31.70
2022-08-24T09:58:14.142Z,31.90
2022-08-24T10:00:50.637Z,32.20
2022-08-24T10:03:36.065Z,32.10
2022-08-24T10:06:17.258Z,32.20
2022-08-24T10:09:09.501Z,32.40
2022-08-24T10:11:48.809Z,32.60
2022-08-24T10:14:28.430Z,32.80
2022-08-24T10:17:07.778Z,32.90
2022-08-24T10:19:49.010Z,33.00
2022-08-24T10:22:28.613Z,33.10
2022-08-24T10:25:21.056Z,33.30
2022-08-24T10:27:58.913Z,33.60
2022-08-24T10:30:52.829Z,33.70
2022-08-24T10:33:24.327Z,34.00
2022-08-24T10:36:28.058Z,34.20
2022-08-24T10:39:31.876Z,34.20
2022-08-24T10:42:45.543Z,34.20
2022-08-24T10:45:28.861Z,33.80
2022-08-24T10:48:15.169Z,33.10
2022-08-24T10:50:55.860Z,32.70
2022-08-24T10:53:29.648Z,32.40
2022-08-24T10:56:10.616Z,32.40
2022-08-24T10:58:46.266Z,32.40
2022-08-24T11:01:17.927Z,32.70
2022-08-24T11:04:05.822Z,33.10
2022-08-24T11:06:36.776Z,33.70
2022-08-24T11:09:08.859Z,34.10
2022-08-24T11:11:40.672Z,34.50
2022-08-24T11:14:26.052Z,35.00
2022-08-24T11:16:57.777Z,35.30
2022-08-24T11:19:35.178Z,35.10
2022-08-24T11:22:07.077Z,34.90
2022-08-24T11:24:44.823Z,34.60
2022-08-24T11:27:26.213Z,34.80
2022-08-24T11:30:16.025Z,34.70
2022-08-24T11:32:46.966Z,34.50
2022-08-24T11:35:26.470Z,34.20
2022-08-24T11:37:57.082Z,34.00
2022-08-24T11:40:31.017Z,33.60
2022-08-24T11:43:17.735Z,33.30
2022-08-24T11:46:00.021Z,32.90
2022-08-24T11:48:38.030Z,32.80
2022-08-24T11:51:18.456Z,32.60
2022-08-24T11:53:57.591Z,32.60
2022-08-24T11:56:32.588Z,32.80
2022-08-24T11:59:07.333Z,33.00
2022-08-24T12:01:45.259Z,33.30
2022-08-24T12:04:31.154Z,33.30
2022-08-24T12:07:05.040Z,33.10
2022-08-24T12:09:59.760Z,33.00
2022-08-24T12:12:34.198Z,32.90
2022-08-24T12:15:08.998Z,33.00
2022-08-24T12:17:45.833Z,33.50
2022-08-24T12:20:25.869Z,34.00
2022-08-24T12:22:58.308Z,34.60
2022-08-24T12:25:45.928Z,34.80
2022-08-24T12:28:18.489Z,34.70
2022-08-24T12:30:47.373Z,34.30
2022-08-24T12:33:18.514Z,34.10
2022-08-24T12:35:51.198Z,33.90
2022-08-24T12:38:26.394Z,33.90
2022-08-24T12:40:59.628Z,34.00
2022-08-24T12:43:37.285Z,34.00
2022-08-24T12:46:06.863Z,33.90
2022-08-24T12:48:42.779Z,34.10
2022-08-24T12:51:21.107Z,34.40
2022-08-24T12:54:07.523Z,34.80
2022-08-24T12:57:06.353Z,34.60
2022-08-24T12:59:41.440Z,34.40
2022-08-24T13:02:28.442Z,34.10
2022-08-24T13:05:01.630Z,34.00
2022-08-24T13:07:32.737Z,33.90
2022-08-24T13:10:11.419Z,33.80
2022-08-24T13:13:12.256Z,33.80
2022-08-24T13:16:04.286Z,33.80
2022-08-24T13:19:10.866Z,33.70
2022-08-24T13:21:51.904Z,33.70
2022-08-24T13:25:00.818Z,33.60
2022-08-24T13:28:10.974Z,33.60
2022-08-24T13:30:58.799Z,33.50
2022-08-24T13:33:31.406Z,33.50
2022-08-24T13:36:25.321Z,33.60
2022-08-24T13:39:10.306Z,33.70
2022-08-24T13:42:00.638Z,33.60
2022-08-24T13:44:48.800Z,33.60
2022-08-24T13:47:22.535Z,33.60
2022-08-24T13:50:03.234Z,33.80
2022-08-24T13:52:41.389Z,34.00
2022-08-24T13:55:32.707Z,34.20
2022-08-24T13:58:24.178Z,34.40
2022-08-24T14:01:01.752Z,34.30
2022-08-24T14:03:56.081Z,34.20
2022-08-24T14:06:38.161Z,33.90
2022-08-24T14:09:36.135Z,33.80
2022-08-24T14:12:18.798Z,33.60
2022-08-24T14:15:02.292Z,33.50
2022-08-24T14:17:59.593Z,33.60
2022-08-24T14:20:59.461Z,33.70
2022-08-24T14:23:44.674Z,33.70
2022-08-24T14:26:52.984Z,34.10
2022-08-24T14:29:35.251Z,34.30
2022-08-24T14:32:35.953Z,34.90
2022-08-24T14:35:24.168Z,35.50
2022-08-24T14:38:14.594Z,35.60
2022-08-24T14:40:59.739Z,35.70
2022-08-24T14:43:35.802Z,35.80
2022-08-24T14:46:15.217Z,36.10
2022-08-24T14:48:55.020Z,36.40
2022-08-24T14:51:45.560Z,36.70
2022-08-24T14:54:25.883Z,36.70
2022-08-24T14:57:09.194Z,36.30
2022-08-24T14:59:53.838Z,35.90
2022-08-24T15:03:02.958Z,35.70
2022-08-24T15:05:41.764Z,35.50
2022-08-24T15:08:32.119Z,35.30
2022-08-24T15:11:08.564Z,35.10
2022-08-24T15:13:45.142Z,34.60
2022-08-24T15:16:16.878Z,34.60
2022-08-24T15:18:55.267Z,34.50
2022-08-24T15:21:32.002Z,34.40
2022-08-24T15:24:19.207Z,34.30
2022-08-24T15:27:07.172Z,34.10
2022-08-24T15:29:37.124Z,33.90
2022-08-24T15:32:10.545Z,33.70
2022-08-24T15:34:45.555Z,33.60
2022-08-24T15:37:16.092Z,33.60
2022-08-24T15:39:44.773Z,33.50
2022-08-24T15:42:25.407Z,33.40
2022-08-24T15:44:54.336Z,33.40
2022-08-24T15:47:28.883Z,33.30
2022-08-24T15:50:01.401Z,33.30
2022-08-24T15:52:51.734Z,33.20
2022-08-24T15:55:39.141Z,33.10
2022-08-24T15:58:28.035Z,33.10
2022-08-24T16:01:19.044Z,33.00
2022-08-24T16:03:50.601Z,33.00
2022-08-24T16:06:26.466Z,33.10
2022-08-24T16:09:00.753Z,33.10
2022-08-24T16:11:33.181Z,33.20
2022-08-24T16:14:03.199Z,33.30
2022-08-24T16:16:37.913Z,33.30
2022-08-24T16:19:08.856Z,33.30
2022-08-24T16:21:40.395Z,33.40
2022-08-24T16:24:12.417Z,33.30
2022-08-24T16:26:57.456Z,33.20
2022-08-24T16:29:55.826Z,33.20
2022-08-24T16:32:32.018Z,33.20
2022-08-24T16:35:18.224Z,32.90
2022-08-24T16:37:47.640Z,32.80
2022-08-24T16:40:16.224Z,32.70
2022-08-24T16:42:44.433Z,32.50
2022-08-24T16:45:17.306Z,32.30
2022-08-24T16:47:47.034Z,32.20
2022-08-24T16:50:16.451Z,32.20
2022-08-24T16:52:44.579Z,32.20
2022-08-24T16:55:14.786Z,32.00
2022-08-24T16:57:43.061Z,32.00
2022-08-24T17:00:16.123Z,31.90
2022-08-24T17:02:44.736Z,31.90
2022-08-24T17:05:13.012Z,31.80
2022-08-24T17:07:41.408Z,31.70
2022-08-24T17:10:12.133Z,31.60
2022-08-24T17:12:41.602Z,31.60
2022-08-24T17:15:12.744Z,31.60
2022-08-24T17:17:41.898Z,31.60
2022-08-24T17:20:11.420Z,31.60
2022-08-24T17:22:39.686Z,31.60
2022-08-24T17:25:08.072Z,31.60
2022-08-24T17:27:36.205Z,31.60
2022-08-24T17:30:07.201Z,31.60
2022-08-24T17:32:35.238Z,31.50
2022-08-24T17:35:04.738Z,31.50
2022-08-24T17:37:33.299Z,31.50
2022-08-24T17:40:02.086Z,31.40
2022-08-24T17:45:20.324Z,31.40
2022-08-24T17:47:48.435Z,31.30
2022-08-24T17:50:19.387Z,31.20
2022-08-24T17:52:47.997Z,31.20
2022-08-24T17:55:17.175Z,31.10
2022-08-24T17:57:52.555Z,31.00
2022-08-24T18:00:21.942Z,30.80
2022-08-24T18:02:50.176Z,30.80
2022-08-24T18:05:18.460Z,30.80
2022-08-24T18:07:54.703Z,30.80
2022-08-24T18:10:24.989Z,30.70
2022-08-24T18:12:53.385Z,30.50
2022-08-24T18:15:34.925Z,30.50
2022-08-24T18:18:08.698Z,30.40
2022-08-24T18:20:40.162Z,30.30
2022-08-24T18:23:11.671Z,30.30
2022-08-24T18:25:47.445Z,30.30
2022-08-24T18:28:16.728Z,30.20
2022-08-24T18:30:47.573Z,30.10
2022-08-24T18:33:15.663Z,30.10
2022-08-24T18:35:44.467Z,30.00
2022-08-24T18:38:12.558Z,29.90
2022-08-24T18:40:46.806Z,29.80
2022-08-24T18:43:23.354Z,29.80
2022-08-24T18:45:53.886Z,29.70
2022-08-24T18:48:22.361Z,29.70
2022-08-24T18:50:51.291Z,29.60
2022-08-24T18:53:19.717Z,29.60
2022-08-24T18:55:49.449Z,29.50
2022-08-24T18:58:17.501Z,29.40
2022-08-24T19:00:46.336Z,29.30
2022-08-24T19:03:20.310Z,29.30
2022-08-24T19:05:48.432Z,29.30
2022-08-24T19:08:16.497Z,29.20
2022-08-24T19:10:44.900Z,29.20
2022-08-24T19:13:16.177Z,29.00
2022-08-24T19:15:46.718Z,29.00
2022-08-24T19:18:17.473Z,29.00
2022-08-24T19:20:49.143Z,29.00
2022-08-24T19:23:22.429Z,29.00
2022-08-24T19:25:51.197Z,28.90
2022-08-24T19:28:19.935Z,28.80
2022-08-24T19:30:49.099Z,28.60
2022-08-24T19:33:24.023Z,28.50
2022-08-24T19:35:53.424Z,28.50
2022-08-24T19:38:25.413Z,28.40
2022-08-24T19:40:55.455Z,28.40
2022-08-24T19:43:26.295Z,28.40
2022-08-24T19:46:06.292Z,28.30
2022-08-24T19:48:38.448Z,28.20
2022-08-24T19:51:09.053Z,28.20
2022-08-24T19:53:38.741Z,28.10
2022-08-24T19:56:08.228Z,28.00
2022-08-24T19:58:45.407Z,28.00
2022-08-24T20:01:18.241Z,28.00
2022-08-24T20:03:47.967Z,28.00
2022-08-24T20:06:17.526Z,27.90
2022-08-24T20:08:48.457Z,27.90
2022-08-24T20:11:16.823Z,27.90
2022-08-24T20:13:45.405Z,27.80
2022-08-24T20:16:17.239Z,27.70
2022-08-24T20:18:47.747Z,27.70
2022-08-24T20:21:17.001Z,27.60
2022-08-24T20:23:45.522Z,27.50
2022-08-24T20:26:14.781Z,27.50
2022-08-24T20:28:46.658Z,27.50
2022-08-24T20:31:16.909Z,27.30
2022-08-24T20:33:49.615Z,27.40
2022-08-24T20:36:25.348Z,27.40
2022-08-24T20:38:56.585Z,27.30
2022-08-24T20:41:26.079Z,27.20
2022-08-24T20:43:54.168Z,27.20
2022-08-24T20:46:23.266Z,27.20
2022-08-24T20:48:55.636Z,27.20
2022-08-24T20:51:24.277Z,27.20
2022-08-24T20:53:52.407Z,27.20
2022-08-24T20:56:30.665Z,27.20
2022-08-24T20:58:59.833Z,27.10
2022-08-24T21:01:28.050Z,27.10
2022-08-24T21:04:01.473Z,27.00
2022-08-24T21:06:32.836Z,27.00
2022-08-24T21:09:01.303Z,26.90
2022-08-24T21:11:29.577Z,26.80
2022-08-24T21:13:57.691Z,26.80
2022-08-24T21:16:26.460Z,26.80
2022-08-24T21:18:54.702Z,26.70
2022-08-24T21:21:24.195Z,26.70
2022-08-24T21:23:52.237Z,26.70
2022-08-24T21:26:24.563Z,26.70
2022-08-24T21:28:53.251Z,26.70
2022-08-24T21:31:21.469Z,26.70
2022-08-24T21:34:07.039Z,26.60
2022-08-24T21:36:37.033Z,26.50
2022-08-24T21:39:10.237Z,26.50
2022-08-24T21:41:40.019Z,26.50
